Ban Gong Hu — BOEY — position and weather

sailwx.info

Track history (hours):
 
Tides and Currents Weather Stations Pressure Air Temp Water Temp Dewpoint Dewpoint Depression Visibility Wind Speed Wind Dir Waves Ship Positions

Ban Gong Hu

Last reported at 2014-Oct-22 06:30 UTC. Time now 2014-Nov-01 11:55 UTC.
Position N 01°15' E 104°01'.
Warning: this ship's position is 10 days out of date.

Length 229 m; draft 9 m.

Type: Tanker. MMSI: 412371000.

Date/timePositionNaut miles runAvg speedWind from/ knotsBaromVisibWave heightAir tempDewpointWater temp
2014-Oct-22 06:30N 01°15' E 104°01'5 1.9
2014-Oct-22 04:04N 01°17' E 103°56'0 0.0
2014-Oct-22 01:28N 01°17' E 103°56'0 0.0
2014-Oct-21 22:28N 01°17' E 103°56'0 0.1
2014-Oct-21 21:31N 01°17' E 103°57'0 0.0
2014-Oct-21 20:10N 01°17' E 103°57'0 0.1
2014-Oct-21 19:10N 01°17' E 103°57'0 0.0
2014-Oct-21 18:28N 01°17' E 103°57'0 0.0
2014-Oct-21 16:16N 01°17' E 103°57'0 0.0
2014-Oct-21 13:31N 01°17' E 103°56'0 0.0
2014-Oct-21 12:19N 01°17' E 103°56'0 0.0
2014-Oct-21 10:33N 01°17' E 103°56'0 0.0
2014-Oct-21 09:33N 01°17' E 103°56'0 0.2
2014-Oct-21 08:33N 01°17' E 103°57'3 2.9
2014-Oct-21 07:33N 01°16' E 103°59'6 5.7
2014-Oct-21 06:33N 01°13' E 103°55'1 0.0
2014-Oct-19 22:33N 01°14' E 103°55'1412.9
2014-Oct-19 21:30N 01°17' E 104°09'  
Track history (hours):
 
Tides and Currents Weather Stations Pressure Air Temp Water Temp Dewpoint Dewpoint Depression Visibility Wind Speed Wind Dir Waves Ship Positions

Ban Gong Hu

Last reported at 2014-Oct-22 06:30 UTC. Time now 2014-Nov-01 11:55 UTC.
Position N 01°15' E 104°01'.
Warning: this ship's position is 10 days out of date.

Length 229 m; draft 9 m.

Type: Tanker. MMSI: 412371000.

Date/timePositionNaut miles runAvg speedWind from/ knotsBaromVisibWave heightAir tempDewpointWater temp
2014-Oct-22 06:30N 01°15' E 104°01'5 1.9
2014-Oct-22 04:04N 01°17' E 103°56'0 0.0
2014-Oct-22 01:28N 01°17' E 103°56'0 0.0
2014-Oct-21 22:28N 01°17' E 103°56'0 0.1
2014-Oct-21 21:31N 01°17' E 103°57'0 0.0
2014-Oct-21 20:10N 01°17' E 103°57'0 0.1
2014-Oct-21 19:10N 01°17' E 103°57'0 0.0
2014-Oct-21 18:28N 01°17' E 103°57'0 0.0
2014-Oct-21 16:16N 01°17' E 103°57'0 0.0
2014-Oct-21 13:31N 01°17' E 103°56'0 0.0
2014-Oct-21 12:19N 01°17' E 103°56'0 0.0
2014-Oct-21 10:33N 01°17' E 103°56'0 0.0
2014-Oct-21 09:33N 01°17' E 103°56'0 0.2
2014-Oct-21 08:33N 01°17' E 103°57'3 2.9
2014-Oct-21 07:33N 01°16' E 103°59'6 5.7
2014-Oct-21 06:33N 01°13' E 103°55'1 0.0
2014-Oct-19 22:33N 01°14' E 103°55'1412.9
2014-Oct-19 21:30N 01°17' E 104°09'  

Dump ship's entire track history